Terminal Aerodrome Forecast
Issued by NWS

Home | Current Version | Previous Version | Text Only | Print | Product List | Glossary On
Versions: 1 2 3 4 5 6 7 8 9 10 11 12 13 14 15 16 17 18 19 20 21 22
000
FTAK31 PANC 250908 AAA
TAFAGK
TAF AMD
PAGK 250908Z 2509/2606 15008KT P6SM -SHRA SCT030 OVC060
      TEMPO 2509/2512 15012G20KT
     FM251200 14007KT 6SM -RA BR BKN025 OVC040
     FM252200 16015G25KT P6SM -SHRA SCT025 OVC050=

USA.gov is the U.S. government's official web portal to all federal, state and local government web resources and services.